Time;durP1;ratioP1;P1;durP2;ratioP2;P2;SDS_P1;SDS_P2;PMS_P1;PMS_P2;Temp;Humidity;BMP_temperature;BMP_pressure;BME280_temperature;BME280_humidity;BME280_pressure;Samples;Min_cycle;Max_cycle;Signal;HPM_P1;HPM_P2
2022/08/21 00:02:23;;;;;;;6.83;5.93;;;;;;;20.77;100.00;99097.72;5125490;27;20198;-82
2022/08/21 00:04:52;;;;;;;6.83;5.80;;;;;;;20.86;100.00;99092.19;5129395;27;20204;-81
2022/08/21 00:07:26;;;;;;;6.53;5.63;;;;;;;20.81;100.00;99091.81;5127266;27;20251;-81
2022/08/21 00:09:55;;;;;;;8.10;5.90;;;;;;;20.97;100.00;99096.41;5128628;27;20202;-81
2022/08/21 00:12:23;;;;;;;7.03;5.57;;;;;;;21.06;100.00;99091.88;5125100;27;20194;-81
2022/08/21 00:14:53;;;;;;;8.03;5.43;;;;;;;20.76;100.00;99098.72;5133719;27;20214;-82
2022/08/21 00:17:27;;;;;;;6.20;5.60;;;;;;;20.85;100.00;99095.88;5134691;27;20190;-81
2022/08/21 00:19:55;;;;;;;6.43;5.83;;;;;;;20.74;100.00;99088.09;5126845;27;20198;-80
2022/08/21 00:22:26;;;;;;;6.22;5.63;;;;;;;20.55;100.00;99075.75;5132527;27;20194;-81
2022/08/21 00:24:54;;;;;;;6.63;5.47;;;;;;;20.64;100.00;99083.88;5068954;28;20193;-81
2022/08/21 00:27:23;;;;;;;6.70;5.80;;;;;;;20.42;100.00;99074.50;5019853;28;20200;-81
2022/08/21 00:29:55;;;;;;;7.30;5.60;;;;;;;20.58;100.00;99080.00;5066848;28;20200;-81
2022/08/21 00:32:25;;;;;;;11.83;6.17;;;;;;;20.45;100.00;99075.06;5064386;28;20204;-81
2022/08/21 00:34:54;;;;;;;6.47;5.80;;;;;;;20.43;100.00;99074.38;5071496;28;20357;-81
2022/08/21 00:37:23;;;;;;;6.87;6.27;;;;;;;20.23;100.00;99075.63;5066435;28;20311;-80
2022/08/21 00:39:52;;;;;;;7.60;6.20;;;;;;;20.20;100.00;99078.66;5066897;28;20216;-80
2022/08/21 00:42:23;;;;;;;6.88;5.70;;;;;;;20.26;100.00;99072.59;5081653;27;20251;-80
2022/08/21 00:44:51;;;;;;;6.47;5.47;;;;;;;20.16;100.00;99067.34;5130847;27;20200;-81
2022/08/21 00:47:26;;;;;;;6.90;5.40;;;;;;;19.97;100.00;99076.50;5125473;27;20269;-81
2022/08/21 00:49:56;;;;;;;7.33;5.57;;;;;;;19.99;100.00;99082.59;5133364;27;20204;-80
2022/08/21 00:52:32;;;;;;;6.00;5.40;;;;;;;19.85;100.00;99074.25;5129542;27;20665;-81
2022/08/21 00:55:04;;;;;;;7.17;5.77;;;;;;;19.88;100.00;99069.41;5098844;27;20213;-80
2022/08/21 00:57:44;;;;;;;6.33;5.73;;;;;;;19.99;100.00;99071.81;5099947;27;20239;-81
2022/08/21 01:00:17;;;;;;;6.40;5.60;;;;;;;19.97;100.00;99070.28;5128863;27;20190;-80
2022/08/21 01:02:47;;;;;;;7.23;5.63;;;;;;;19.89;100.00;99071.09;5130390;27;20218;-81
2022/08/21 01:05:16;;;;;;;7.27;6.00;;;;;;;19.78;100.00;99068.66;5130605;27;20197;-80
2022/08/21 01:07:45;;;;;;;6.97;5.70;;;;;;;19.70;100.00;99080.22;5127690;27;20194;-80
2022/08/21 01:10:15;;;;;;;7.43;5.77;;;;;;;19.60;100.00;99071.44;5129521;27;20273;-80
2022/08/21 01:12:52;;;;;;;9.67;5.90;;;;;;;19.58;100.00;99075.25;5132318;28;20247;-81
2022/08/21 01:15:23;;;;;;;7.23;5.60;;;;;;;19.60;100.00;99068.75;5123689;28;20218;-80
2022/08/21 01:17:54;;;;;;;6.63;5.70;;;;;;;19.48;100.00;99074.47;5125109;28;20197;-80
2022/08/21 01:20:22;;;;;;;7.97;6.07;;;;;;;19.45;100.00;99068.41;5126072;28;20225;-81
2022/08/21 01:23:01;;;;;;;7.33;5.77;;;;;;;19.45;100.00;99072.94;5132182;28;20193;-81
2022/08/21 01:25:30;;;;;;;7.33;6.07;;;;;;;19.26;100.00;99076.66;5093242;28;20202;-80
2022/08/21 01:28:04;;;;;;;7.67;6.10;;;;;;;19.34;100.00;99079.41;5125332;28;20257;-81
2022/08/21 01:30:36;;;;;;;7.73;6.10;;;;;;;19.41;100.00;99075.13;5127999;28;20194;-81
2022/08/21 01:33:08;;;;;;;7.00;6.07;;;;;;;19.28;100.00;99076.50;5126019;28;20194;-81
2022/08/21 01:35:42;;;;;;;7.90;5.93;;;;;;;18.99;100.00;99079.44;5113137;28;20239;-80
2022/08/21 01:38:17;;;;;;;7.27;5.73;;;;;;;18.94;100.00;99084.44;5099845;28;20199;-80
2022/08/21 01:40:46;;;;;;;7.33;5.93;;;;;;;18.86;100.00;99083.38;5093974;28;20204;-80
2022/08/21 01:43:14;;;;;;;8.67;6.80;;;;;;;18.57;100.00;99080.00;5133390;28;20226;-81
2022/08/21 01:45:52;;;;;;;8.13;6.20;;;;;;;18.46;100.00;99082.91;5125777;28;20261;-80
2022/08/21 01:48:21;;;;;;;8.73;7.40;;;;;;;18.67;100.00;99079.97;5125827;28;20194;-80
2022/08/21 01:50:50;;;;;;;8.53;6.80;;;;;;;18.42;100.00;99078.81;5126519;28;20222;-80
2022/08/21 01:53:26;;;;;;;10.50;7.30;;;;;;;18.40;100.00;99080.81;5133636;28;20216;-80
2022/08/21 01:56:01;;;;;;;8.20;7.40;;;;;;;18.39;100.00;99079.97;5080606;28;20221;-80
2022/08/21 01:58:29;;;;;;;8.27;6.87;;;;;;;18.41;100.00;99082.50;5129589;28;20246;-80
2022/08/21 02:00:58;;;;;;;8.43;7.50;;;;;;;18.28;100.00;99075.66;5094041;28;20676;-80
2022/08/21 02:03:26;;;;;;;12.07;8.37;;;;;;;18.20;100.00;99077.38;5126409;28;20675;-79
2022/08/21 02:06:03;;;;;;;10.10;7.77;;;;;;;18.25;100.00;99070.59;5133557;28;20243;-80
2022/08/21 02:08:33;;;;;;;11.13;8.13;;;;;;;17.91;100.00;99075.66;5095547;28;20202;-80
2022/08/21 02:11:02;;;;;;;7.90;7.10;;;;;;;17.88;100.00;99069.78;5126673;28;20190;-80
2022/08/21 02:13:30;;;;;;;7.87;6.93;;;;;;;17.62;100.00;99078.41;5124154;28;20206;-80
2022/08/21 02:16:00;;;;;;;8.90;7.20;;;;;;;17.65;100.00;99064.72;5121808;28;20226;-80
2022/08/21 02:18:29;;;;;;;7.97;6.50;;;;;;;17.57;100.00;99066.44;5130486;28;20233;-80
2022/08/21 02:20:58;;;;;;;8.43;7.03;;;;;;;17.62;100.00;99062.34;5078505;28;20198;-80
2022/08/21 02:23:27;;;;;;;12.17;7.00;;;;;;;17.34;100.00;99061.41;5130016;28;20229;-80
2022/08/21 02:26:07;;;;;;;13.10;7.70;;;;;;;17.23;100.00;99061.56;5128343;27;20209;-80
2022/08/21 02:28:36;;;;;;;10.40;7.17;;;;;;;17.26;100.00;99063.94;5048395;28;20595;-80
2022/08/21 02:31:06;;;;;;;9.33;6.80;;;;;;;17.21;100.00;99062.72;5053813;28;20279;-80
2022/08/21 02:33:35;;;;;;;10.87;7.47;;;;;;;17.23;100.00;99055.38;5054002;28;20221;-80
2022/08/21 02:36:05;;;;;;;11.00;6.70;;;;;;;17.06;100.00;99059.59;5051272;28;20213;-79
2022/08/21 02:38:37;;;;;;;11.27;7.67;;;;;;;16.96;100.00;99062.28;5050319;28;20208;-80
2022/08/21 02:41:13;;;;;;;9.73;7.00;;;;;;;16.95;100.00;99060.59;5053698;28;20272;-80
2022/08/21 02:43:41;;;;;;;10.17;6.73;;;;;;;16.99;100.00;99061.19;5042584;28;20232;-80
2022/08/21 02:46:12;;;;;;;13.67;7.33;;;;;;;16.97;100.00;99065.78;5066398;27;20220;-80
2022/08/21 02:48:44;;;;;;;9.60;7.20;;;;;;;16.91;100.00;99066.38;5136343;27;20198;-80
2022/08/21 02:51:15;;;;;;;8.10;6.53;;;;;;;16.98;100.00;99062.97;5134491;27;20190;-80
2022/08/21 02:53:44;;;;;;;8.43;7.10;;;;;;;16.95;100.00;99060.59;5133899;27;20202;-80
2022/08/21 02:56:17;;;;;;;8.93;7.00;;;;;;;16.92;100.00;99057.38;5133853;27;20220;-80
2022/08/21 02:58:48;;;;;;;11.33;7.50;;;;;;;17.01;100.00;99064.56;5129994;27;20190;-80
2022/08/21 03:01:17;;;;;;;11.93;7.20;;;;;;;16.92;100.00;99066.25;5136782;27;20197;-80
2022/08/21 03:03:50;;;;;;;13.57;7.53;;;;;;;16.79;100.00;99057.63;5134886;27;20202;-80
2022/08/21 03:06:21;;;;;;;10.73;6.83;;;;;;;16.77;100.00;99056.94;5133279;27;20194;-80
2022/08/21 03:08:50;;;;;;;10.23;7.80;;;;;;;16.74;100.00;99054.53;5070418;28;20192;-80
2022/08/21 03:11:22;;;;;;;11.70;7.47;;;;;;;16.74;100.00;99054.53;5035258;28;20199;-80
2022/08/21 03:13:50;;;;;;;12.50;7.10;;;;;;;16.70;100.00;99053.97;5038230;28;20647;-80
2022/08/21 03:16:20;;;;;;;12.20;7.50;;;;;;;16.61;100.00;99054.78;5068327;28;20217;-79
2022/08/21 03:18:48;;;;;;;9.83;6.90;;;;;;;16.65;100.00;99061.53;5071584;28;20206;-80
2022/08/21 03:21:19;;;;;;;9.73;7.17;;;;;;;16.63;100.00;99065.34;5069054;28;20203;-80
2022/08/21 03:23:48;;;;;;;11.50;7.10;;;;;;;16.65;100.00;99066.88;5072822;28;20335;-80
2022/08/21 03:26:18;;;;;;;11.17;6.87;;;;;;;16.76;100.00;99069.44;5078538;27;20209;-80
2022/08/21 03:28:50;;;;;;;10.80;7.57;;;;;;;16.70;100.00;99067.34;5129548;27;20218;-80
2022/08/21 03:31:21;;;;;;;13.40;7.57;;;;;;;16.71;100.00;99063.69;5129893;27;20222;-80
2022/08/21 03:33:54;;;;;;;11.20;7.20;;;;;;;16.76;100.00;99071.28;5132894;27;20210;-80
2022/08/21 03:36:22;;;;;;;10.03;6.97;;;;;;;16.76;100.00;99071.28;5103865;28;20226;-80
2022/08/21 03:38:51;;;;;;;10.90;7.23;;;;;;;16.67;100.00;99072.09;5104760;28;20281;-81
2022/08/21 03:41:20;;;;;;;8.73;6.83;;;;;;;16.64;100.00;99061.69;5110397;28;20187;-80
2022/08/21 03:43:50;;;;;;;12.27;7.53;;;;;;;16.71;100.00;99073.56;5102635;28;20226;-80
2022/08/21 03:46:18;;;;;;;12.47;7.90;;;;;;;16.70;100.00;99069.19;5107319;28;20223;-80
2022/08/21 03:48:47;;;;;;;10.90;7.07;;;;;;;16.72;100.00;99076.09;5109213;28;20199;-80
2022/08/21 03:51:16;;;;;;;14.47;7.50;;;;;;;16.68;100.00;99077.31;5110174;28;20199;-80
2022/08/21 03:53:45;;;;;;;12.07;7.70;;;;;;;16.70;100.00;99080.72;5112224;27;20198;-80
2022/08/21 03:56:15;;;;;;;10.23;7.00;;;;;;;16.54;100.00;99073.19;5125170;27;20218;-80
2022/08/21 03:58:44;;;;;;;10.03;7.13;;;;;;;16.58;100.00;99081.78;5130331;27;20216;-80
2022/08/21 04:01:15;;;;;;;13.20;7.73;;;;;;;16.60;100.00;99078.00;5132357;27;20205;-80
2022/08/21 04:03:46;;;;;;;9.27;7.87;;;;;;;16.54;100.00;99083.91;5127180;27;20198;-80
2022/08/21 04:06:14;;;;;;;10.10;7.83;;;;;;;16.48;100.00;99094.28;5135172;27;20202;-80
2022/08/21 04:08:43;;;;;;;11.17;7.73;;;;;;;16.31;100.00;99102.00;5129842;27;20201;-80
2022/08/21 04:11:11;;;;;;;8.57;7.67;;;;;;;16.24;100.00;99103.53;5131774;27;20294;-80
2022/08/21 04:13:40;;;;;;;10.47;7.27;;;;;;;16.33;100.00;99101.03;5133780;27;20202;-80
2022/08/21 04:16:11;;;;;;;9.70;7.40;;;;;;;16.33;100.00;99104.53;5129944;27;20253;-80
2022/08/21 04:18:42;;;;;;;9.83;7.17;;;;;;;16.36;100.00;99108.75;5123853;27;20190;-79
2022/08/21 04:21:12;;;;;;;9.20;6.73;;;;;;;16.46;100.00;99106.94;5130394;27;20273;-80
2022/08/21 04:23:44;;;;;;;9.57;6.73;;;;;;;16.43;100.00;99112.59;5131197;27;20286;-80
2022/08/21 04:26:12;;;;;;;10.10;6.60;;;;;;;16.18;100.00;99117.41;5135006;27;20229;-80
2022/08/21 04:28:40;;;;;;;11.07;6.90;;;;;;;16.23;100.00;99119.69;5129313;27;20191;-80
2022/08/21 04:31:11;;;;;;;8.47;6.27;;;;;;;16.25;100.00;99107.03;5128600;27;20209;-81
2022/08/21 04:33:42;;;;;;;10.60;6.80;;;;;;;16.18;100.00;99121.91;5126859;27;20242;-81
2022/08/21 04:36:15;;;;;;;11.43;6.57;;;;;;;16.25;100.00;99120.41;5130004;27;20218;-80
2022/08/21 04:38:50;;;;;;;9.00;6.73;;;;;;;16.20;100.00;99126.13;5129008;27;20193;-80
2022/08/21 04:41:20;;;;;;;12.47;7.07;;;;;;;16.22;100.00;99124.19;5132729;27;20205;-79
2022/08/21 04:43:56;;;;;;;14.77;7.60;;;;;;;16.36;100.00;99130.16;5131752;27;20222;-79
2022/08/21 04:46:26;;;;;;;9.40;7.20;;;;;;;16.28;100.00;99126.31;5130141;27;20226;-80
2022/08/21 04:48:59;;;;;;;9.80;7.03;;;;;;;16.19;100.00;99129.78;5127002;27;20260;-80
2022/08/21 04:51:32;;;;;;;10.77;7.10;;;;;;;16.16;100.00;99138.09;5126091;27;20195;-80
2022/08/21 04:54:08;;;;;;;11.47;7.17;;;;;;;16.10;100.00;99135.09;5129415;27;20209;-80
2022/08/21 04:56:40;;;;;;;10.30;7.33;;;;;;;16.09;100.00;99136.06;5096737;27;20311;-80
2022/08/21 04:59:16;;;;;;;8.80;6.97;;;;;;;16.13;100.00;99141.03;5130124;27;20186;-80
2022/08/21 05:01:46;;;;;;;10.27;6.80;;;;;;;16.10;100.00;99143.09;5134424;27;20194;-80
2022/08/21 05:04:22;;;;;;;11.87;7.50;;;;;;;16.06;100.00;99141.69;5129173;27;20187;-80
2022/08/21 05:06:53;;;;;;;9.40;7.67;;;;;;;16.21;100.00;99148.34;5134065;27;20287;-80
2022/08/21 05:09:23;;;;;;;11.50;7.03;;;;;;;16.33;100.00;99144.63;5134087;27;20186;-80
2022/08/21 05:11:54;;;;;;;10.97;7.57;;;;;;;16.24;100.00;99143.59;5131094;27;20217;-80
2022/08/21 05:14:23;;;;;;;9.00;6.33;;;;;;;16.28;100.00;99141.50;5132914;27;20209;-80
2022/08/21 05:16:52;;;;;;;10.03;6.83;;;;;;;16.36;100.00;99144.34;5128712;28;20278;-80
2022/08/21 05:19:24;;;;;;;10.63;7.37;;;;;;;16.47;100.00;99141.56;5129652;28;20251;-81
2022/08/21 05:21:54;;;;;;;10.30;7.30;;;;;;;16.42;100.00;99151.00;5128336;28;20221;-79
2022/08/21 05:24:23;;;;;;;14.37;7.00;;;;;;;16.36;100.00;99151.53;5130879;28;20198;-80
2022/08/21 05:26:52;;;;;;;10.43;7.00;;;;;;;16.25;100.00;99156.00;5131347;28;20277;-79
2022/08/21 05:29:22;;;;;;;8.63;7.40;;;;;;;16.41;100.00;99155.50;5130073;28;20202;-80
2022/08/21 05:31:51;;;;;;;8.73;6.77;;;;;;;16.66;100.00;99155.97;5127497;28;20641;-80
2022/08/21 05:34:22;;;;;;;11.73;7.70;;;;;;;16.77;100.00;99155.91;5128363;28;20239;-80
2022/08/21 05:36:55;;;;;;;11.43;7.73;;;;;;;16.96;100.00;99153.25;5127509;28;20286;-80
2022/08/21 05:39:23;;;;;;;12.43;8.33;;;;;;;16.96;100.00;99152.41;5131080;28;20250;-81
2022/08/21 05:41:51;;;;;;;11.33;8.10;;;;;;;17.21;100.00;99146.53;5131234;28;20206;-80
2022/08/21 05:44:20;;;;;;;9.40;7.73;;;;;;;17.22;100.00;99144.69;5129640;28;20250;-80
2022/08/21 05:46:49;;;;;;;11.77;7.23;;;;;;;17.30;100.00;99150.19;5133924;28;20194;-80
2022/08/21 05:49:18;;;;;;;10.13;7.40;;;;;;;17.17;100.00;99148.63;5127297;28;20248;-80
2022/08/21 05:51:46;;;;;;;10.17;6.93;;;;;;;17.16;100.00;99149.63;5130791;28;20183;-80
2022/08/21 05:54:16;;;;;;;11.87;7.70;;;;;;;17.26;100.00;99151.44;5128039;28;20226;-80
2022/08/21 05:56:45;;;;;;;9.70;7.27;;;;;;;17.34;100.00;99155.13;5123775;28;20238;-80
2022/08/21 05:59:13;;;;;;;12.93;7.77;;;;;;;17.10;100.00;99147.50;5127051;28;20202;-80
2022/08/21 06:01:42;;;;;;;9.37;7.40;;;;;;;17.43;100.00;99143.56;5125199;27;20209;-80
2022/08/21 06:04:11;;;;;;;10.20;7.07;;;;;;;17.44;100.00;99150.59;5131975;27;20226;-80
2022/08/21 06:06:40;;;;;;;11.00;7.33;;;;;;;17.39;100.00;99154.72;5132049;27;20233;-81
2022/08/21 06:09:08;;;;;;;9.97;7.20;;;;;;;17.27;100.00;99156.66;5127977;27;20198;-80
2022/08/21 06:11:38;;;;;;;10.60;7.03;;;;;;;17.34;100.00;99154.28;5131109;27;20307;-80
2022/08/21 06:14:07;;;;;;;11.63;6.97;;;;;;;17.34;100.00;99152.44;5136319;27;20250;-81
2022/08/21 06:16:35;;;;;;;9.57;6.30;;;;;;;17.53;100.00;99156.09;5080759;27;20210;-80
2022/08/21 06:19:05;;;;;;;14.83;7.30;;;;;;;17.53;100.00;99158.78;5126082;27;20206;-80
2022/08/21 06:21:34;;;;;;;13.73;6.53;;;;;;;17.51;100.00;99166.13;5130057;27;20229;-80
2022/08/21 06:24:02;;;;;;;10.13;7.07;;;;;;;17.61;100.00;99151.72;5131940;27;20197;-80
2022/08/21 06:26:31;;;;;;;12.23;6.80;;;;;;;17.86;100.00;99147.63;5137476;27;20198;-80
2022/08/21 06:29:00;;;;;;;10.90;6.57;;;;;;;17.83;100.00;99152.41;5131668;27;20242;-80
2022/08/21 06:31:31;;;;;;;11.93;6.90;;;;;;;17.95;100.00;99148.56;5092419;28;20191;-80
2022/08/21 06:34:01;;;;;;;13.60;7.27;;;;;;;18.09;100.00;99141.91;5089712;28;20283;-80
2022/08/21 06:36:32;;;;;;;8.57;6.67;;;;;;;18.07;100.00;99146.59;5086423;28;20188;-81
2022/08/21 06:39:01;;;;;;;10.23;6.90;;;;;;;18.26;100.00;99150.03;5088882;28;20279;-80
2022/08/21 06:41:43;;;;;;;10.33;6.97;;;;;;;18.24;100.00;99145.81;5093072;28;20187;-80
2022/08/21 06:44:16;;;;;;;11.10;7.10;;;;;;;18.29;100.00;99143.53;4990503;28;20230;-80
2022/08/21 06:46:45;;;;;;;12.67;7.67;;;;;;;18.37;100.00;99149.00;4993243;28;20195;-80
2022/08/21 06:49:15;;;;;;;12.73;7.57;;;;;;;18.54;100.00;99142.84;5006602;28;20201;-80
2022/08/21 06:51:49;;;;;;;11.43;7.57;;;;;;;18.74;100.00;99149.00;5031659;28;20190;-80
2022/08/21 06:54:17;;;;;;;13.50;8.57;;;;;;;18.69;100.00;99143.22;5031157;28;20206;-80
2022/08/21 06:56:46;;;;;;;13.87;7.97;;;;;;;18.62;100.00;99150.13;5028497;28;20221;-80
2022/08/21 06:59:16;;;;;;;10.23;8.23;;;;;;;18.73;100.00;99141.09;5032137;28;20213;-80
2022/08/21 07:01:45;;;;;;;9.77;7.37;;;;;;;18.93;100.00;99149.88;5048414;28;20199;-80
2022/08/21 07:04:14;;;;;;;13.30;7.67;;;;;;;19.10;100.00;99139.13;5112091;28;20195;-80
2022/08/21 07:06:42;;;;;;;10.93;7.30;;;;;;;19.08;100.00;99140.28;5112046;28;20199;-80
2022/08/21 07:09:11;;;;;;;13.50;8.27;;;;;;;18.99;100.00;99142.03;5112899;28;20187;-80
2022/08/21 07:11:40;;;;;;;9.73;7.37;;;;;;;19.19;100.00;99144.56;5112763;28;20304;-80
2022/08/21 07:14:16;;;;;;;12.47;7.63;;;;;;;19.46;100.00;99136.44;5112479;28;20193;-80
2022/08/21 07:16:47;;;;;;;9.90;7.67;;;;;;;19.54;100.00;99130.28;5115104;28;20252;-80
2022/08/21 07:19:16;;;;;;;11.43;7.90;;;;;;;19.68;100.00;99127.06;5110966;28;20222;-80
2022/08/21 07:21:46;;;;;;;12.00;8.70;;;;;;;19.50;100.00;99127.06;5108368;28;20192;-81
2022/08/21 07:24:18;;;;;;;10.10;7.90;;;;;;;19.87;100.00;99129.53;5097321;28;20299;-80
2022/08/21 07:26:46;;;;;;;11.13;7.90;;;;;;;19.88;100.00;99128.56;5108678;28;20202;-80
2022/08/21 07:29:17;;;;;;;9.73;7.97;;;;;;;20.06;100.00;99130.31;5106798;28;20274;-80
2022/08/21 07:31:45;;;;;;;10.20;7.73;;;;;;;20.26;100.00;99132.63;5109817;28;20230;-80
2022/08/21 07:34:17;;;;;;;11.13;8.63;;;;;;;20.09;100.00;99124.66;5111523;28;20274;-80
2022/08/21 07:36:46;;;;;;;10.83;7.57;;;;;;;20.19;100.00;99130.75;5109888;28;20195;-81
2022/08/21 07:39:16;;;;;;;12.70;7.97;;;;;;;20.40;100.00;99117.72;5109143;28;20214;-81
2022/08/21 07:41:44;;;;;;;10.50;8.07;;;;;;;20.51;100.00;99114.78;5068898;28;20197;-80
2022/08/21 07:44:12;;;;;;;10.90;7.83;;;;;;;20.77;100.00;99103.94;5063338;28;20232;-80
2022/08/21 07:46:46;;;;;;;11.60;7.27;;;;;;;20.89;100.00;99109.00;5032329;28;20196;-80
2022/08/21 07:49:14;;;;;;;11.90;8.10;;;;;;;20.74;100.00;99106.94;4993048;28;20203;-80
2022/08/21 07:51:43;;;;;;;12.27;7.57;;;;;;;21.14;100.00;99108.03;4957136;28;20690;-79
2022/08/21 07:54:12;;;;;;;13.53;7.83;;;;;;;20.87;100.00;99098.41;4993154;28;20238;-81
2022/08/21 07:56:45;;;;;;;11.53;7.30;;;;;;;21.28;100.00;99101.16;4988853;28;20203;-81
2022/08/21 07:59:14;;;;;;;11.90;7.07;;;;;;;21.35;100.00;99089.56;4998959;28;20213;-80
2022/08/21 08:01:44;;;;;;;9.07;6.73;;;;;;;21.62;100.00;99099.16;5047537;28;20215;-80
2022/08/21 08:04:14;;;;;;;9.93;6.17;;;;;;;21.57;100.00;99096.09;5052137;28;20201;-80
2022/08/21 08:06:44;;;;;;;10.07;7.17;;;;;;;21.31;100.00;99093.59;5049552;28;20197;-80
2022/08/21 08:09:12;;;;;;;10.60;6.00;;;;;;;21.72;100.00;99096.28;5045260;28;20197;-80
2022/08/21 08:11:43;;;;;;;10.87;6.70;;;;;;;21.63;100.00;99094.59;5045368;28;20201;-81
2022/08/21 08:14:12;;;;;;;9.67;5.97;;;;;;;21.71;100.00;99095.44;5042975;28;20201;-81
2022/08/21 08:16:40;;;;;;;14.10;5.90;;;;;;;21.86;100.00;99092.88;5048079;28;20189;-81
2022/08/21 08:19:11;;;;;;;8.93;5.90;;;;;;;22.32;100.00;99094.97;5049259;28;20217;-80
2022/08/21 08:21:39;;;;;;;8.23;6.00;;;;;;;22.46;100.00;99094.22;5114732;28;20191;-81
2022/08/21 08:24:09;;;;;;;10.90;5.53;;;;;;;22.60;100.00;99095.34;5109486;28;20219;-81
2022/08/21 08:26:47;;;;;;;6.75;5.05;;;;;;;22.66;100.00;99091.91;5110380;28;20649;-81
2022/08/21 08:29:21;;;;;;;10.10;4.97;;;;;;;22.89;100.00;99092.00;5110459;28;20194;-81
2022/08/21 08:31:50;;;;;;;11.07;5.30;;;;;;;23.12;100.00;99090.97;5110393;28;20198;-81
2022/08/21 08:34:22;;;;;;;12.65;5.45;;;;;;;22.90;100.00;99089.13;5068318;28;20212;-81
2022/08/21 08:36:57;;;;;;;8.90;4.80;;;;;;;22.33;100.00;99086.69;5070877;28;20188;-81
2022/08/21 08:39:28;;;;;;;9.23;5.03;;;;;;;22.44;100.00;99078.19;5063174;28;20227;-80
2022/08/21 08:42:02;;;;;;;8.83;4.73;;;;;;;22.33;100.00;99089.38;5011784;28;20226;-81
2022/08/21 08:45:00;;;;;;;10.33;4.90;;;;;;;22.48;100.00;99081.38;5010538;28;20363;-80
2022/08/21 08:47:32;;;;;;;12.82;5.88;;;;;;;22.64;99.02;99078.59;5009389;28;20201;-81
2022/08/21 08:50:07;;;;;;;12.53;4.50;;;;;;;22.85;96.10;99075.28;5009963;28;20198;-81
2022/08/21 08:52:44;;;;;;;8.10;4.60;;;;;;;22.99;95.85;99079.09;5036457;28;20199;-81
2022/08/21 08:55:16;;;;;;;8.73;5.10;;;;;;;23.14;93.56;99075.41;5066519;28;20207;-81
2022/08/21 08:57:48;;;;;;;10.43;5.13;;;;;;;23.11;92.48;99074.94;5066186;28;20200;-81
2022/08/21 09:00:20;;;;;;;12.90;5.35;;;;;;;23.24;91.62;99075.19;4969574;28;20203;-80
2022/08/21 09:02:54;;;;;;;8.82;4.00;;;;;;;23.49;85.58;99081.22;4970106;28;20196;-81
2022/08/21 09:05:30;;;;;;;13.27;4.68;;;;;;;23.58;87.82;99071.19;4972290;28;20235;-81
2022/08/21 09:08:17;;;;;;;9.27;4.43;;;;;;;23.71;87.03;99066.00;5029788;28;20209;-81
2022/08/21 09:10:56;;;;;;;10.60;4.72;;;;;;;23.70;84.03;99058.91;5028605;28;20204;-81
2022/08/21 09:13:33;;;;;;;12.98;4.80;;;;;;;23.87;84.78;99055.00;5026101;28;20216;-81
2022/08/21 09:16:15;;;;;;;11.77;4.20;;;;;;;24.08;78.49;99053.44;5026914;28;20329;-81
2022/08/21 09:18:54;;;;;;;11.25;4.28;;;;;;;24.36;75.82;99049.03;5025825;28;20221;-81
2022/08/21 09:21:44;;;;;;;9.15;4.05;;;;;;;24.47;75.67;99045.84;5025259;28;20251;-81
2022/08/21 09:24:32;;;;;;;10.15;3.67;;;;;;;24.17;78.50;99046.88;5045310;28;20199;-81
2022/08/21 09:27:08;;;;;;;9.18;4.10;;;;;;;23.48;77.77;99048.97;5113438;28;20194;-81
2022/08/21 09:29:40;;;;;;;6.10;3.28;;;;;;;23.87;75.46;99048.75;5109427;28;20194;-81
2022/08/21 09:32:18;;;;;;;6.60;3.80;;;;;;;24.04;75.72;99052.97;5045670;28;20193;-81
2022/08/21 09:34:58;;;;;;;10.30;3.80;;;;;;;24.39;73.97;99043.25;5048735;28;20189;-81
2022/08/21 09:37:33;;;;;;;10.32;3.60;;;;;;;24.97;71.52;99059.50;5054979;28;20239;-80
2022/08/21 09:40:04;;;;;;;8.02;3.65;;;;;;;23.67;75.09;99062.84;5054457;28;20219;-81
2022/08/21 09:42:33;;;;;;;10.88;4.22;;;;;;;24.14;72.05;99064.34;5053728;28;20196;-81
2022/08/21 09:45:14;;;;;;;7.47;3.70;;;;;;;24.18;71.42;99049.41;5047009;28;20235;-81
2022/08/21 09:47:45;;;;;;;9.65;3.22;;;;;;;24.71;67.39;99041.13;5051060;28;20201;-81
2022/08/21 09:50:19;;;;;;;9.35;3.55;;;;;;;25.04;65.81;99050.47;5069911;28;20206;-81
2022/08/21 09:52:56;;;;;;;7.95;3.45;;;;;;;25.45;64.62;99040.78;5095606;28;20195;-81
2022/08/21 09:58:25;;;;;;;7.90;3.45;;;;;;;24.59;66.93;99056.19;5053501;28;20638;-80
2022/08/21 10:00:59;;;;;;;6.68;3.35;;;;;;;24.37;69.04;99048.00;5051768;28;20682;-80
2022/08/21 10:03:29;;;;;;;8.23;3.90;;;;;;;24.96;65.91;99045.13;5051651;28;20308;-80
2022/08/21 10:06:01;;;;;;;10.30;4.10;;;;;;;24.37;67.67;99039.06;5047911;28;20197;-80
2022/08/21 10:08:34;;;;;;;7.72;3.65;;;;;;;25.27;64.90;99033.13;5051949;28;20193;-81
2022/08/21 10:11:05;;;;;;;7.63;3.13;;;;;;;25.80;61.22;99034.41;5049278;28;20283;-81
2022/08/21 10:13:48;;;;;;;5.82;3.15;;;;;;;26.15;59.16;99024.41;5064722;28;20274;-81
2022/08/21 10:16:30;;;;;;;8.55;3.45;;;;;;;26.49;58.52;99028.09;5093276;28;20206;-81
2022/08/21 10:19:16;;;;;;;9.55;4.00;;;;;;;26.07;57.24;99024.56;5094986;28;20260;-81
2022/08/21 10:21:58;;;;;;;7.50;3.47;;;;;;;26.19;57.16;99020.22;5096203;28;20266;-81
2022/08/21 10:24:34;;;;;;;7.13;3.50;;;;;;;25.17;60.97;99022.63;5059669;28;20207;-81
2022/08/21 10:27:20;;;;;;;7.32;3.67;;;;;;;25.38;60.05;99017.19;5096582;28;20191;-81
2022/08/21 10:29:56;;;;;;;6.63;2.92;;;;;;;26.18;57.46;99015.00;5093945;28;20230;-81
2022/08/21 10:32:58;;;;;;;7.68;3.75;;;;;;;26.16;55.92;99009.78;5092513;28;20184;-81
2022/08/21 10:35:31;;;;;;;8.20;3.38;;;;;;;26.13;54.41;99009.31;5094663;28;20207;-80
2022/08/21 10:38:47;;;;;;;7.30;3.35;;;;;;;26.76;54.29;99010.84;5094613;28;20218;-80
2022/08/21 10:42:05;;;;;;;9.40;3.38;;;;;;;26.93;51.67;99005.00;5096538;28;20203;-81
2022/08/21 10:44:40;;;;;;;7.45;3.22;;;;;;;27.15;50.81;99001.09;5128909;27;20241;-81
2022/08/21 10:47:16;;;;;;;6.88;3.00;;;;;;;27.60;50.06;98993.94;5130576;27;20233;-81
2022/08/21 10:49:56;;;;;;;8.35;3.30;;;;;;;27.58;49.23;99003.34;5101601;27;20190;-81
2022/08/21 10:52:42;;;;;;;7.57;3.00;;;;;;;27.34;49.28;99000.25;5135724;27;20233;-81
2022/08/21 10:55:17;;;;;;;6.82;3.00;;;;;;;28.29;46.58;98992.53;5128991;27;20206;-81
2022/08/21 10:57:50;;;;;;;7.05;3.35;;;;;;;27.85;47.33;98996.00;5134441;27;20675;-82
2022/08/21 11:00:22;;;;;;;7.15;3.50;;;;;;;27.60;48.03;98988.50;5135275;27;20293;-81
2022/08/21 11:02:58;;;;;;;5.65;2.90;;;;;;;28.49;45.15;98987.81;5131547;27;20205;-81
2022/08/21 11:05:32;;;;;;;6.68;3.03;;;;;;;28.01;44.69;98987.38;5130239;27;20198;-81
2022/08/21 11:08:07;;;;;;;5.15;3.00;;;;;;;26.32;49.85;98991.44;5137636;27;20197;-81
2022/08/21 11:10:42;;;;;;;5.85;3.20;;;;;;;26.29;49.28;98992.69;5133580;27;20190;-81
2022/08/21 11:13:38;;;;;;;9.65;3.10;;;;;;;27.41;47.13;98985.78;5135986;27;20214;-81
2022/08/21 11:16:17;;;;;;;4.32;2.72;;;;;;;27.74;46.90;98978.44;5137146;27;20190;-81
2022/08/21 11:18:55;;;;;;;4.68;2.78;;;;;;;28.38;44.97;98972.16;5124644;27;20201;-81
2022/08/21 11:21:35;;;;;;;6.93;2.90;;;;;;;28.44;44.52;98973.16;5138260;27;20672;-81
2022/08/21 11:24:19;;;;;;;6.95;2.88;;;;;;;27.55;47.35;98974.69;5129248;27;20202;-82
2022/08/21 11:26:54;;;;;;;6.82;3.00;;;;;;;28.48;45.18;98972.53;5131749;27;20186;-81
2022/08/21 11:29:29;;;;;;;7.13;2.97;;;;;;;27.78;45.80;98984.28;5128945;27;20205;-81
2022/08/21 11:32:25;;;;;;;6.28;2.90;;;;;;;27.48;44.57;98978.44;5081033;27;20193;-82
2022/08/21 11:35:01;;;;;;;7.07;3.22;;;;;;;27.29;46.03;98970.09;5133314;27;20205;-82
2022/08/21 11:37:46;;;;;;;4.90;2.60;;;;;;;28.02;44.58;98960.97;5125179;27;20250;-82
2022/08/21 11:40:26;;;;;;;8.02;3.28;;;;;;;28.33;44.47;98962.97;5128373;27;20210;-81
2022/08/21 11:43:04;;;;;;;6.80;2.88;;;;;;;28.08;45.78;98965.53;5132731;27;20190;-82
2022/08/21 11:45:43;;;;;;;5.72;3.08;;;;;;;28.29;43.90;98968.03;5133225;27;20198;-81
2022/08/21 11:48:24;;;;;;;5.60;2.50;;;;;;;28.73;42.73;98964.38;5078639;27;20272;-81
2022/08/21 11:50:55;;;;;;;6.18;3.00;;;;;;;28.06;44.56;98962.19;5131169;27;20191;-82
2022/08/21 11:53:31;;;;;;;7.20;2.85;;;;;;;27.60;44.22;98953.13;5130570;27;20226;-82